createdAt,value
2023-01-12T00:02:21.554Z,100240.44
2023-01-12T00:04:50.124Z,100231.94
2023-01-12T00:07:20.248Z,100231.13
2023-01-12T00:09:48.771Z,100231.31
2023-01-12T00:12:18.499Z,100224.19
2023-01-12T00:14:46.823Z,100225.03
2023-01-12T00:17:17.364Z,100229.47
2023-01-12T00:19:45.703Z,100224.19
2023-01-12T00:22:17.657Z,100221.78
2023-01-12T00:24:49.568Z,100222.59
2023-01-12T00:27:21.222Z,100218.31
2023-01-12T00:29:49.921Z,100205.09
2023-01-12T00:32:20.445Z,100194.72
2023-01-12T00:34:49.137Z,100203.47
2023-01-12T00:37:17.906Z,100216.88
2023-01-12T00:40:00.969Z,100210.00
2023-01-12T00:42:49.185Z,100212.84
2023-01-12T00:45:23.542Z,100204.31
2023-01-12T00:47:52.000Z,100199.03
2023-01-12T00:50:20.337Z,100190.88
2023-01-12T00:52:48.736Z,100194.34
2023-01-12T00:55:20.487Z,100189.03
2023-01-12T00:57:50.233Z,100193.53
2023-01-12T01:00:19.912Z,100189.03
2023-01-12T01:02:48.308Z,100184.59
2023-01-12T01:05:17.842Z,100185.59
2023-01-12T01:07:47.311Z,100186.41
2023-01-12T01:10:16.668Z,100187.25
2023-01-12T01:12:45.433Z,100190.69
2023-01-12T01:15:15.277Z,100190.69
2023-01-12T01:17:43.563Z,100192.53
2023-01-12T01:20:13.591Z,100192.72
2023-01-12T01:22:42.024Z,100204.91
2023-01-12T01:25:11.241Z,100191.69
2023-01-12T01:28:52.985Z,100201.31
2023-01-12T01:31:24.474Z,100211.50
2023-01-12T01:33:53.010Z,100208.84
2023-01-12T01:36:21.790Z,100203.34
2023-01-12T01:38:51.520Z,100207.25
2023-01-12T01:41:23.979Z,100213.09
2023-01-12T01:43:57.009Z,100214.53
2023-01-12T01:46:43.244Z,100208.44
2023-01-12T01:49:33.416Z,100215.31
2023-01-12T01:52:09.563Z,100209.00
2023-01-12T01:54:43.052Z,100205.38
2023-01-12T01:57:14.101Z,100194.34
2023-01-12T01:59:48.064Z,100182.75
2023-01-12T02:02:19.514Z,100189.28
2023-01-12T02:04:48.011Z,100184.59
2023-01-12T02:07:16.386Z,100181.72
2023-01-12T02:09:45.664Z,100184.16
2023-01-12T02:12:31.814Z,100182.34
2023-01-12T02:15:17.617Z,100181.31
2023-01-12T02:18:00.217Z,100175.41
2023-01-12T02:21:12.559Z,100166.09
2023-01-12T02:24:17.579Z,100152.66
2023-01-12T02:27:22.067Z,100152.44
2023-01-12T02:30:40.808Z,100147.16
2023-01-12T02:33:28.151Z,100143.50
2023-01-12T02:36:03.300Z,100145.75
2023-01-12T02:38:39.221Z,100148.97
2023-01-12T02:41:41.471Z,100134.72
2023-01-12T02:44:15.284Z,100132.69
2023-01-12T02:46:47.424Z,100143.25
2023-01-12T02:49:21.990Z,100145.66
2023-01-12T02:51:55.725Z,100143.03
2023-01-12T02:54:26.263Z,100147.31
2023-01-12T02:56:57.543Z,100131.22
2023-01-12T02:59:29.494Z,100138.34
2023-01-12T03:02:02.695Z,100138.34
2023-01-12T03:04:33.982Z,100134.66
2023-01-12T03:07:29.146Z,100134.91
2023-01-12T03:10:13.479Z,100126.72
2023-01-12T03:12:45.027Z,100134.66
2023-01-12T03:15:17.891Z,100137.53
2023-01-12T03:17:51.535Z,100138.56
2023-01-12T03:20:25.836Z,100145.91
2023-01-12T03:22:59.960Z,100135.94
2023-01-12T03:25:31.226Z,100134.91
2023-01-12T03:28:01.162Z,100131.81
2023-01-12T03:30:36.844Z,100128.38
2023-01-12T03:33:06.354Z,100122.84
2023-01-12T03:35:43.281Z,100131.00
2023-01-12T03:38:21.087Z,100121.25
2023-01-12T03:40:59.817Z,100121.03
2023-01-12T03:43:32.769Z,100105.97
2023-01-12T03:46:08.788Z,100114.94
2023-01-12T03:48:43.305Z,100116.53
2023-01-12T03:51:17.120Z,100103.56
2023-01-12T03:53:49.356Z,100112.50
2023-01-12T03:56:20.645Z,100111.47
2023-01-12T03:58:49.772Z,100127.09
2023-01-12T04:01:18.229Z,100105.16
2023-01-12T04:03:47.552Z,100119.78
2023-01-12T04:06:17.254Z,100098.84
2023-01-12T04:08:45.583Z,100095.19
2023-01-12T04:11:31.609Z,100095.19
2023-01-12T04:13:59.959Z,100109.22
2023-01-12T04:16:28.358Z,100096.81
2023-01-12T04:18:56.780Z,100099.44
2023-01-12T04:21:43.878Z,100100.00
2023-01-12T04:24:12.260Z,100093.13
2023-01-12T04:26:40.632Z,100094.72
2023-01-12T04:29:08.955Z,100087.63
2023-01-12T04:31:37.305Z,100088.19
2023-01-12T04:34:05.805Z,100090.66
2023-01-12T04:36:35.534Z,100071.09
2023-01-12T04:39:04.076Z,100070.31
2023-01-12T04:41:32.395Z,100062.13
2023-01-12T04:44:00.736Z,100071.09
2023-01-12T04:46:29.109Z,100056.03
2023-01-12T04:48:57.429Z,100060.53
2023-01-12T04:51:25.906Z,100054.19
2023-01-12T04:53:55.582Z,100049.97
2023-01-12T04:56:23.968Z,100053.16
2023-01-12T04:58:59.552Z,100048.47
2023-01-12T05:01:29.947Z,100042.16
2023-01-12T05:04:01.113Z,100041.16
2023-01-12T05:06:30.163Z,100052.53
2023-01-12T05:09:19.775Z,100048.03
2023-01-12T05:11:48.493Z,100050.31
2023-01-12T05:14:16.846Z,100042.38
2023-01-12T05:16:46.361Z,100057.44
2023-01-12T05:19:14.975Z,100049.53
2023-01-12T05:21:43.684Z,100048.91
2023-01-12T05:24:13.425Z,100044.44
2023-01-12T05:26:41.791Z,100034.91
2023-01-12T05:29:12.301Z,100030.66
2023-01-12T05:31:40.762Z,100021.91
2023-01-12T05:34:09.081Z,100019.28
2023-01-12T05:36:37.440Z,100019.28
2023-01-12T05:39:06.602Z,100008.69
2023-01-12T05:41:36.325Z,99994.06
2023-01-12T05:44:03.935Z,99992.00
2023-01-12T05:46:34.286Z,99984.31
2023-01-12T05:49:02.607Z,99985.69
2023-01-12T05:51:32.162Z,99980.19
2023-01-12T05:54:00.505Z,99979.97
2023-01-12T05:56:30.533Z,99979.16
2023-01-12T05:59:02.504Z,99973.06
2023-01-12T06:01:31.736Z,99972.06
2023-01-12T06:04:01.943Z,99976.28
2023-01-12T06:06:31.915Z,99972.63
2023-01-12T06:09:01.369Z,99961.47
2023-01-12T06:11:47.631Z,99964.13
2023-01-12T06:14:17.457Z,99965.38
2023-01-12T06:16:45.814Z,99954.78
2023-01-12T06:19:14.481Z,99964.56
2023-01-12T06:21:42.889Z,99951.53
2023-01-12T06:24:11.699Z,99957.06
2023-01-12T06:26:40.074Z,99965.56
2023-01-12T06:29:08.605Z,99975.13
2023-01-12T06:31:38.832Z,99971.69
2023-01-12T06:34:07.977Z,99957.63
2023-01-12T06:36:36.755Z,99982.25
2023-01-12T06:39:05.773Z,99983.25
2023-01-12T06:41:53.233Z,99969.59
2023-01-12T06:44:21.573Z,99971.44
2023-01-12T06:46:51.245Z,99960.63
2023-01-12T06:49:19.886Z,99969.97
2023-01-12T06:51:51.259Z,99975.84
2023-01-12T06:54:19.628Z,99976.66
2023-01-12T06:56:48.107Z,99977.69
2023-01-12T06:59:16.578Z,99973.41
2023-01-12T07:01:45.029Z,99967.13
2023-01-12T07:04:14.989Z,99954.47
2023-01-12T07:06:43.335Z,99960.13
2023-01-12T07:09:11.643Z,99945.28
2023-01-12T07:11:40.016Z,99953.78
2023-01-12T07:14:09.290Z,99961.53
2023-01-12T07:16:37.790Z,99950.94
2023-01-12T07:19:06.321Z,99946.69
2023-01-12T07:21:36.175Z,99935.28
2023-01-12T07:24:04.700Z,99908.28
2023-01-12T07:26:33.109Z,99902.19
2023-01-12T07:29:01.448Z,99914.97
2023-01-12T07:31:30.086Z,99913.13
2023-01-12T07:33:58.460Z,99938.75
2023-01-12T07:36:26.969Z,99907.03
2023-01-12T07:38:56.656Z,99922.41
2023-01-12T07:41:44.862Z,99916.34
2023-01-12T07:44:14.528Z,99927.94
2023-01-12T07:46:42.944Z,99918.19
2023-01-12T07:49:11.375Z,99906.56
2023-01-12T07:51:39.780Z,99903.72
2023-01-12T07:54:09.947Z,99905.56
2023-01-12T07:56:38.538Z,99889.09
2023-01-12T07:59:06.877Z,99909.19
2023-01-12T08:01:35.978Z,99906.00
2023-01-12T08:04:04.961Z,99916.56
2023-01-12T08:06:37.262Z,99907.03
2023-01-12T08:09:05.892Z,99906.19
2023-01-12T08:11:35.646Z,99908.84
2023-01-12T08:14:05.461Z,99901.75
2023-01-12T08:16:39.594Z,99911.50
2023-01-12T08:19:12.947Z,99894.47
2023-01-12T08:21:46.056Z,99909.69
2023-01-12T08:24:17.962Z,99896.09
2023-01-12T08:26:51.717Z,99888.97
2023-01-12T08:29:29.890Z,99881.03
2023-01-12T08:32:00.446Z,99891.63
2023-01-12T08:34:30.378Z,99910.13
2023-01-12T08:37:02.019Z,99923.34
2023-01-12T08:39:30.457Z,99922.06
2023-01-12T08:42:00.199Z,99896.66
2023-01-12T08:44:32.684Z,99930.47
2023-01-12T08:47:01.049Z,99921.72
2023-01-12T08:49:32.523Z,99917.25
2023-01-12T08:52:01.090Z,99929.44
2023-01-12T08:54:32.799Z,99915.97
2023-01-12T08:57:06.780Z,99909.88
2023-01-12T08:59:35.238Z,99915.41
2023-01-12T09:02:03.863Z,99917.81
2023-01-12T09:04:32.368Z,99919.22
2023-01-12T09:07:03.957Z,99945.22
2023-01-12T09:09:32.447Z,99908.75
2023-01-12T09:12:02.236Z,99923.63
2023-01-12T09:14:30.647Z,99903.72
2023-01-12T09:16:59.011Z,99913.25
2023-01-12T09:19:33.921Z,99908.19
2023-01-12T09:22:04.255Z,99919.78
2023-01-12T09:24:32.602Z,99932.00
2023-01-12T09:27:02.363Z,99931.75
2023-01-12T09:29:30.638Z,99943.13
2023-01-12T09:31:59.024Z,99956.97
2023-01-12T09:34:27.536Z,99959.38
2023-01-12T09:36:56.724Z,99956.50
2023-01-12T09:39:28.676Z,99957.31
2023-01-12T09:42:17.601Z,99940.66
2023-01-12T09:45:08.647Z,99928.44
2023-01-12T09:47:40.662Z,99934.56
2023-01-12T09:50:14.602Z,99927.63
2023-01-12T09:52:48.580Z,99932.47
2023-01-12T09:55:20.218Z,99927.19
2023-01-12T09:58:33.365Z,99915.00
2023-01-12T10:01:14.612Z,99913.72
2023-01-12T10:03:45.901Z,99922.25
2023-01-12T10:06:17.928Z,99920.19
2023-01-12T10:08:51.277Z,99925.84
2023-01-12T10:11:29.247Z,99933.78
2023-01-12T10:14:24.924Z,99936.19
2023-01-12T10:17:16.257Z,99930.91
2023-01-12T10:19:52.633Z,99928.63
2023-01-12T10:22:38.225Z,99928.97
2023-01-12T10:25:38.847Z,99932.66
2023-01-12T10:28:11.570Z,99931.16
2023-01-12T10:30:42.391Z,99942.31
2023-01-12T10:33:16.885Z,99921.97
2023-01-12T10:35:55.484Z,99929.69
2023-01-12T10:38:31.037Z,99925.19
2023-01-12T10:41:20.872Z,99924.16
2023-01-12T10:44:17.548Z,99924.75
2023-01-12T10:47:08.765Z,99922.91
2023-01-12T10:49:39.300Z,99936.94
2023-01-12T10:52:20.447Z,99923.50
2023-01-12T10:54:50.728Z,99927.75
2023-01-12T10:57:22.932Z,99926.25
2023-01-12T10:59:54.198Z,99923.97
2023-01-12T11:02:24.221Z,99916.81
2023-01-12T11:04:55.711Z,99905.19
2023-01-12T11:07:27.015Z,99901.75
2023-01-12T11:09:55.990Z,99915.56
2023-01-12T11:12:29.835Z,99916.38
2023-01-12T11:15:04.903Z,99917.41
2023-01-12T11:17:57.214Z,99913.13
2023-01-12T11:20:32.639Z,99909.47
2023-01-12T11:23:06.512Z,99917.97
2023-01-12T11:25:39.961Z,99918.78
2023-01-12T11:28:16.314Z,99899.00
2023-01-12T11:30:51.830Z,99899.81
2023-01-12T11:33:24.485Z,99887.38
2023-01-12T11:36:00.483Z,99897.97
2023-01-12T11:38:35.225Z,99891.66
2023-01-12T11:41:09.720Z,99889.00
2023-01-12T11:43:55.785Z,99886.91
2023-01-12T11:46:29.106Z,99873.47
2023-01-12T11:49:08.526Z,99869.53
2023-01-12T11:51:39.089Z,99867.25
2023-01-12T11:54:08.711Z,99857.50
2023-01-12T11:57:00.699Z,99868.63
2023-01-12T11:59:38.588Z,99839.31
2023-01-12T12:02:29.246Z,99852.84
2023-01-12T12:05:11.243Z,99850.53
2023-01-12T12:08:01.079Z,99846.88
2023-01-12T12:10:43.190Z,99850.34
2023-01-12T12:13:33.024Z,99843.19
2023-01-12T12:16:17.797Z,99851.94
2023-01-12T12:19:00.162Z,99844.63
2023-01-12T12:21:50.702Z,99841.97
2023-01-12T12:25:02.109Z,99842.94
2023-01-12T12:27:47.525Z,99835.63
2023-01-12T12:30:55.650Z,99838.50
2023-01-12T12:33:59.829Z,99825.25
2023-01-12T12:36:36.196Z,99818.94
2023-01-12T12:39:47.750Z,99829.97
2023-01-12T12:42:49.484Z,99814.19
2023-01-12T12:45:30.517Z,99811.81
2023-01-12T12:48:07.424Z,99821.34
2023-01-12T12:50:41.883Z,99813.41
2023-01-12T12:53:25.986Z,99814.19
2023-01-12T12:56:00.820Z,99814.78
2023-01-12T12:58:48.405Z,99810.28
2023-01-12T13:01:42.579Z,99809.50
2023-01-12T13:04:15.224Z,99800.50
2023-01-12T13:06:49.703Z,99807.66
2023-01-12T13:09:38.815Z,99808.69
2023-01-12T13:12:36.548Z,99809.75
2023-01-12T13:15:32.237Z,99801.22
2023-01-12T13:18:00.756Z,99795.91
2023-01-12T13:20:53.363Z,99802.25
2023-01-12T13:23:45.750Z,99805.34
2023-01-12T13:26:43.483Z,99798.66
2023-01-12T13:29:42.432Z,99809.25
2023-01-12T13:32:34.797Z,99798.44
2023-01-12T13:35:03.507Z,99788.41
2023-01-12T13:37:45.875Z,99794.50
2023-01-12T13:40:21.303Z,99794.31
2023-01-12T13:43:08.829Z,99805.69
2023-01-12T13:45:38.905Z,99805.88
2023-01-12T13:48:08.695Z,99805.47
2023-01-12T13:50:38.414Z,99788.78
2023-01-12T13:53:06.896Z,99787.50
2023-01-12T13:55:37.174Z,99795.22
2023-01-12T13:58:16.600Z,99781.41
2023-01-12T14:00:57.054Z,99796.50
2023-01-12T14:03:47.430Z,99776.34
2023-01-12T14:06:26.759Z,99787.16
2023-01-12T14:09:10.984Z,99788.56
2023-01-12T14:12:48.978Z,99787.97
2023-01-12T14:15:47.540Z,99780.84
2023-01-12T14:18:19.993Z,99787.34
2023-01-12T14:20:50.487Z,99780.84
2023-01-12T14:23:31.027Z,99786.13
2023-01-12T14:26:13.265Z,99779.78
2023-01-12T14:28:43.990Z,99786.13
2023-01-12T14:31:22.673Z,99797.31
2023-01-12T14:33:55.279Z,99785.41
2023-01-12T14:36:29.167Z,99789.69
2023-01-12T14:38:59.661Z,99788.06
2023-01-12T14:41:48.051Z,99780.97
2023-01-12T14:44:38.015Z,99785.41
2023-01-12T14:47:07.200Z,99799.72
2023-01-12T14:49:38.639Z,99793.16
2023-01-12T14:52:26.184Z,99781.75
2023-01-12T14:54:54.592Z,99806.13
2023-01-12T14:57:27.924Z,99799.84
2023-01-12T14:59:57.187Z,99794.88
2023-01-12T15:02:35.163Z,99790.94
2023-01-12T15:05:19.309Z,99784.63
2023-01-12T15:07:58.165Z,99785.97
2023-01-12T15:10:33.063Z,99799.81
2023-01-12T15:13:27.128Z,99787.59
2023-01-12T15:16:14.877Z,99788.75
2023-01-12T15:19:01.371Z,99777.31
2023-01-12T15:21:50.072Z,99773.88
2023-01-12T15:24:45.496Z,99781.00
2023-01-12T15:27:16.347Z,99783.44
2023-01-12T15:29:44.729Z,99768.34
2023-01-12T15:32:19.145Z,99781.13
2023-01-12T15:34:47.577Z,99763.94
2023-01-12T15:37:18.844Z,99764.53
2023-01-12T15:39:56.659Z,99760.84
2023-01-12T15:42:26.398Z,99761.16
2023-01-12T15:44:55.016Z,99760.13
2023-01-12T15:47:23.647Z,99757.47
2023-01-12T15:49:53.452Z,99760.94
2023-01-12T15:52:25.950Z,99759.66
2023-01-12T15:54:54.724Z,99759.44
2023-01-12T15:57:23.414Z,99752.28
2023-01-12T15:59:51.789Z,99757.59
2023-01-12T16:02:32.681Z,99759.66
2023-01-12T16:05:01.268Z,99761.28
2023-01-12T16:07:31.735Z,99757.81
2023-01-12T16:10:00.245Z,99747.78
2023-01-12T16:12:28.592Z,99759.19
2023-01-12T16:14:58.769Z,99757.13
2023-01-12T16:17:27.969Z,99757.66
2023-01-12T16:19:56.316Z,99761.13
2023-01-12T16:22:27.930Z,99751.09
2023-01-12T16:24:58.106Z,99754.56
2023-01-12T16:27:28.564Z,99752.69
2023-01-12T16:29:57.100Z,99743.72
2023-01-12T16:32:26.778Z,99745.81
2023-01-12T16:34:55.247Z,99752.94
2023-01-12T16:37:27.456Z,99745.81
2023-01-12T16:39:57.370Z,99748.19
2023-01-12T16:42:25.687Z,99754.63
2023-01-12T16:44:54.076Z,99753.38
2023-01-12T16:47:24.339Z,99752.09
2023-01-12T16:49:53.317Z,99759.00
2023-01-12T16:52:23.168Z,99750.00
2023-01-12T16:54:51.571Z,99739.38
2023-01-12T16:57:21.397Z,99732.28
2023-01-12T16:59:50.948Z,99732.28
2023-01-12T17:02:20.424Z,99744.94
2023-01-12T17:04:52.160Z,99741.25
2023-01-12T17:07:21.024Z,99741.50
2023-01-12T17:09:49.525Z,99738.84
2023-01-12T17:12:18.340Z,99746.78
2023-01-12T17:14:48.216Z,99734.34
2023-01-12T17:17:16.829Z,99741.50
2023-01-12T17:19:46.413Z,99727.19
2023-01-12T17:22:15.150Z,99734.94
2023-01-12T17:24:43.562Z,99729.03
2023-01-12T17:27:12.337Z,99725.81
2023-01-12T17:29:40.840Z,99717.06
2023-01-12T17:32:11.451Z,99711.22
2023-01-12T17:34:43.055Z,99725.75
2023-01-12T17:37:11.762Z,99712.16
2023-01-12T17:39:42.974Z,99713.22
2023-01-12T17:42:30.612Z,99716.91
2023-01-12T17:44:59.183Z,99706.78
2023-01-12T17:47:29.291Z,99718.19
2023-01-12T17:49:57.984Z,99730.63
2023-01-12T17:52:26.492Z,99705.16
2023-01-12T17:54:54.936Z,99720.25
2023-01-12T17:57:23.337Z,99734.28
2023-01-12T17:59:52.323Z,99725.78
2023-01-12T18:02:20.735Z,99733.97
2023-01-12T18:04:50.527Z,99720.16
2023-01-12T18:07:18.946Z,99717.25
2023-01-12T18:09:47.342Z,99723.88
2023-01-12T18:12:16.509Z,99709.00
2023-01-12T18:14:44.915Z,99716.13
2023-01-12T18:17:13.223Z,99706.59
2023-01-12T18:19:42.488Z,99708.19
2023-01-12T18:22:12.759Z,99702.09
2023-01-12T18:24:41.208Z,99694.94
2023-01-12T18:27:09.615Z,99695.41
2023-01-12T18:29:38.326Z,99730.31
2023-01-12T18:32:07.597Z,99692.34
2023-01-12T18:34:36.485Z,99689.38
2023-01-12T18:37:04.954Z,99703.66
2023-01-12T18:39:34.731Z,99700.22
2023-01-12T18:42:20.677Z,99701.81
2023-01-12T18:44:49.516Z,99695.13
2023-01-12T18:47:35.518Z,99697.56
2023-01-12T18:50:37.419Z,99695.94
2023-01-12T18:53:23.887Z,99707.31
2023-01-12T18:55:57.408Z,99708.16
2023-01-12T18:58:30.466Z,99705.00
2023-01-12T19:01:05.984Z,99712.16
2023-01-12T19:03:37.742Z,99706.06
2023-01-12T19:06:22.576Z,99696.25
2023-01-12T19:09:21.603Z,99714.25
2023-01-12T19:11:51.359Z,99712.63
2023-01-12T19:14:38.358Z,99709.97
2023-01-12T19:17:24.366Z,99713.44
2023-01-12T19:19:52.692Z,99715.53
2023-01-12T19:22:38.682Z,99707.00
2023-01-12T19:25:25.417Z,99713.66
2023-01-12T19:28:12.532Z,99704.94
2023-01-12T19:30:40.907Z,99709.41
2023-01-12T19:33:09.684Z,99709.41
2023-01-12T19:35:39.221Z,99705.72
2023-01-12T19:38:08.164Z,99705.72
2023-01-12T19:40:45.293Z,99695.94
2023-01-12T19:43:20.386Z,99697.56
2023-01-12T19:45:51.721Z,99692.25
2023-01-12T19:48:23.357Z,99693.06
2023-01-12T19:50:52.951Z,99701.00
2023-01-12T19:53:25.962Z,99693.06
2023-01-12T19:55:54.600Z,99702.03
2023-01-12T19:58:25.197Z,99700.44
2023-01-12T20:00:55.645Z,99676.25
2023-01-12T20:03:25.649Z,99680.03
2023-01-12T20:05:54.311Z,99679.03
2023-01-12T20:08:25.730Z,99658.63
2023-01-12T20:10:55.237Z,99658.84
2023-01-12T20:13:25.317Z,99665.78
2023-01-12T20:15:54.965Z,99666.81
2023-01-12T20:18:26.546Z,99652.53
2023-01-12T20:20:58.674Z,99667.59
2023-01-12T20:23:27.102Z,99641.44
2023-01-12T20:25:55.603Z,99635.94
2023-01-12T20:28:25.368Z,99633.03
2023-01-12T20:30:53.725Z,99642.81
2023-01-12T20:33:22.580Z,99636.72
2023-01-12T20:35:50.909Z,99638.81
2023-01-12T20:38:19.286Z,99628.47
2023-01-12T20:40:47.971Z,99624.22
2023-01-12T20:43:16.431Z,99634.56
2023-01-12T20:45:46.239Z,99639.59
2023-01-12T20:48:15.526Z,99638.59
2023-01-12T20:50:45.502Z,99634.09
2023-01-12T20:53:15.294Z,99643.41
2023-01-12T20:55:45.096Z,99638.13
2023-01-12T20:58:13.808Z,99630.16
2023-01-12T21:00:42.911Z,99636.47
2023-01-12T21:03:12.827Z,99636.72
2023-01-12T21:05:43.188Z,99636.72
2023-01-12T21:08:12.217Z,99630.97
2023-01-12T21:10:42.075Z,99638.44
2023-01-12T21:13:10.423Z,99631.84
2023-01-12T21:15:38.863Z,99634.28
2023-01-12T21:18:07.368Z,99626.06
2023-01-12T21:20:37.195Z,99623.41
2023-01-12T21:23:05.557Z,99623.41
2023-01-12T21:25:33.896Z,99622.63
2023-01-12T21:28:02.294Z,99626.06
2023-01-12T21:30:33.025Z,99624.47
2023-01-12T21:33:01.354Z,99628.72
2023-01-12T21:35:29.681Z,99618.13
2023-01-12T21:37:59.989Z,99611.22
2023-01-12T21:40:28.380Z,99624.22
2023-01-12T21:43:13.189Z,99624.47
2023-01-12T21:45:43.751Z,99619.66
2023-01-12T21:48:13.986Z,99607.69
2023-01-12T21:50:42.764Z,99618.28
2023-01-12T21:53:17.658Z,99600.78
2023-01-12T21:55:55.393Z,99601.59
2023-01-12T21:58:24.483Z,99600.78
2023-01-12T22:00:53.105Z,99603.19
2023-01-12T22:03:24.691Z,99596.84
2023-01-12T22:05:53.678Z,99605.34
2023-01-12T22:08:23.509Z,99588.66
2023-01-12T22:10:51.851Z,99587.38
2023-01-12T22:13:20.189Z,99589.00
2023-01-12T22:15:51.067Z,99594.53
2023-01-12T22:18:20.888Z,99587.88
2023-01-12T22:20:50.626Z,99587.63
2023-01-12T22:23:19.129Z,99590.03
2023-01-12T22:25:48.778Z,99580.25
2023-01-12T22:28:17.135Z,99587.38
2023-01-12T22:30:45.501Z,99599.03
2023-01-12T22:33:13.892Z,99593.75
2023-01-12T22:35:42.303Z,99586.59
2023-01-12T22:38:10.691Z,99579.91
2023-01-12T22:40:39.104Z,99581.50
2023-01-12T22:43:27.830Z,99575.41
2023-01-12T22:45:58.050Z,99578.88
2023-01-12T22:48:27.531Z,99579.44
2023-01-12T22:50:56.346Z,99581.03
2023-01-12T22:53:25.219Z,99574.47
2023-01-12T22:55:53.776Z,99571.03
2023-01-12T22:58:23.488Z,99573.66
2023-01-12T23:00:53.319Z,99586.91
2023-01-12T23:03:22.319Z,99572.03
2023-01-12T23:05:56.414Z,99576.88
2023-01-12T23:08:26.120Z,99568.91
2023-01-12T23:11:04.590Z,99564.19
2023-01-12T23:13:34.666Z,99556.25
2023-01-12T23:16:07.410Z,99560.50
2023-01-12T23:18:38.870Z,99546.19
2023-01-12T23:21:14.274Z,99542.28
2023-01-12T23:23:45.836Z,99549.41
2023-01-12T23:26:16.687Z,99538.56
2023-01-12T23:28:50.156Z,99537.78
2023-01-12T23:31:21.494Z,99536.75
2023-01-12T23:33:50.695Z,99542.06
2023-01-12T23:36:21.913Z,99551.81
2023-01-12T23:38:54.553Z,99534.09
2023-01-12T23:41:25.769Z,99527.75
2023-01-12T23:43:57.869Z,99532.00
2023-01-12T23:46:27.288Z,99518.75
2023-01-12T23:48:57.522Z,99529.91
2023-01-12T23:51:28.651Z,99522.50
2023-01-12T23:53:59.811Z,99514.56
2023-01-12T23:56:30.037Z,99505.03
2023-01-12T23:59:00.175Z,99514.56
